Time;durP1;ratioP1;P1;durP2;ratioP2;P2;SDS_P1;SDS_P2;PMS_P1;PMS_P2;Temp;Humidity;BMP_temperature;BMP_pressure;BME280_temperature;BME280_humidity;BME280_pressure;Samples;Min_cycle;Max_cycle;Signal;HPM_P1;HPM_P2
2022/08/15 00:00:55;;;;;;;12.13;6.03;;;;;;;21.54;75.98;99071.28;1791728;80;21063;-75
2022/08/15 00:03:33;;;;;;;8.30;5.47;;;;;;;21.55;75.96;99066.77;1791711;80;22410;-74
2022/08/15 00:06:04;;;;;;;9.70;5.42;;;;;;;21.56;75.88;99073.83;1791514;80;21065;-74
2022/08/15 00:08:33;;;;;;;6.35;5.47;;;;;;;21.58;75.81;99067.84;1792069;80;21012;-75
2022/08/15 00:11:04;;;;;;;8.68;5.60;;;;;;;21.58;75.80;99067.34;1791751;80;21613;-74
2022/08/15 00:13:32;;;;;;;7.90;5.08;;;;;;;21.60;75.82;99065.86;1792009;79;21091;-74
2022/08/15 00:15:59;;;;;;;11.60;5.45;;;;;;;21.60;75.72;99068.55;1791901;80;21988;-74
2022/08/15 00:18:28;;;;;;;6.55;5.40;;;;;;;21.61;75.68;99066.23;1792093;80;20977;-75
2022/08/15 00:20:55;;;;;;;12.55;5.87;;;;;;;21.63;75.66;99061.59;1791771;79;20977;-74
2022/08/15 00:23:23;;;;;;;6.20;5.60;;;;;;;21.63;75.74;99062.42;1791928;80;21593;-74
2022/08/15 00:25:55;;;;;;;9.90;5.80;;;;;;;21.63;75.75;99062.92;1791902;80;21049;-75
2022/08/15 00:28:22;;;;;;;6.78;5.87;;;;;;;21.62;75.69;99069.25;1791891;80;22300;-75
2022/08/15 00:30:49;;;;;;;12.20;5.58;;;;;;;21.62;75.73;99065.23;1792302;80;21511;-75
2022/08/15 00:33:15;;;;;;;11.90;5.70;;;;;;;21.62;75.68;99062.09;1791934;80;21071;-75
2022/08/15 00:35:46;;;;;;;9.43;5.30;;;;;;;21.62;75.69;99065.23;1791951;80;21968;-75
2022/08/15 00:38:16;;;;;;;9.33;5.62;;;;;;;21.60;75.68;99060.05;1791969;80;21103;-74
2022/08/15 00:43:40;;;;;;;10.98;5.67;;;;;;;21.58;75.70;99061.98;1792223;80;20989;-76
2022/08/15 00:46:09;;;;;;;7.55;5.03;;;;;;;21.57;75.74;99059.44;1791640;80;21122;-75
2022/08/15 00:48:42;;;;;;;5.65;5.05;;;;;;;21.57;75.70;99059.44;1792202;80;21024;-75
2022/08/15 00:51:35;;;;;;;5.62;5.15;;;;;;;21.56;75.74;99058.60;1791813;80;20992;-75
2022/08/15 00:54:13;;;;;;;6.55;5.17;;;;;;;21.56;75.75;99056.42;1776267;80;21471;-75
2022/08/15 00:56:59;;;;;;;11.18;5.53;;;;;;;21.55;75.79;99056.89;1791941;80;21051;-76
2022/08/15 00:59:29;;;;;;;7.70;5.00;;;;;;;21.53;75.81;99050.83;1791057;79;22320;-75
2022/08/15 01:01:57;;;;;;;5.92;5.05;;;;;;;21.53;75.82;99050.83;1791850;80;21103;-76
2022/08/15 01:04:24;;;;;;;7.87;5.62;;;;;;;21.50;75.81;99050.63;1792225;80;20982;-76
2022/08/15 01:06:50;;;;;;;6.78;5.65;;;;;;;21.49;75.85;99044.06;1792142;80;21093;-75
2022/08/15 01:09:19;;;;;;;7.25;5.80;;;;;;;21.47;75.83;99041.52;1791756;80;21004;-75
2022/08/15 01:11:54;;;;;;;9.83;5.25;;;;;;;21.47;75.81;99044.20;1770335;80;21605;-75
2022/08/15 01:14:22;;;;;;;9.45;5.45;;;;;;;21.46;75.86;99035.77;1791642;79;21028;-75
2022/08/15 01:16:50;;;;;;;6.50;5.20;;;;;;;21.46;75.83;99034.43;1791779;80;21095;-76
2022/08/15 01:19:35;;;;;;;8.83;5.42;;;;;;;21.45;75.88;99038.11;1792091;80;21783;-75
2022/08/15 01:22:33;;;;;;;8.60;5.30;;;;;;;21.42;75.92;99038.38;1791952;79;20988;-75
2022/08/15 01:25:11;;;;;;;10.75;5.62;;;;;;;21.40;76.04;99039.47;1785318;79;21090;-76
2022/08/15 01:28:01;;;;;;;9.18;5.42;;;;;;;21.38;75.98;99028.06;1779717;80;21129;-75
2022/08/15 01:30:35;;;;;;;9.88;5.22;;;;;;;21.36;75.99;99025.52;1761968;80;21031;-75
2022/08/15 01:33:02;;;;;;;7.33;5.22;;;;;;;21.35;76.02;99029.20;1782454;79;21127;-76
2022/08/15 01:35:29;;;;;;;10.20;5.30;;;;;;;21.33;76.02;99027.98;1791808;80;21098;-75
2022/08/15 01:37:56;;;;;;;9.53;5.10;;;;;;;21.33;76.05;99028.45;1791826;80;21051;-76
2022/08/15 01:40:49;;;;;;;5.97;4.90;;;;;;;21.35;76.01;99030.53;1769981;80;21043;-75
2022/08/15 01:43:17;;;;;;;11.08;5.58;;;;;;;21.36;75.97;99025.52;1791973;80;20968;-76
2022/08/15 01:45:44;;;;;;;10.38;5.15;;;;;;;21.36;75.97;99031.37;1792056;80;21566;-75
2022/08/15 01:48:18;;;;;;;7.00;5.47;;;;;;;21.34;76.02;99027.48;1791847;80;22024;-75
2022/08/15 01:50:49;;;;;;;7.30;5.05;;;;;;;21.34;76.03;99030.16;1792163;80;21063;-75
2022/08/15 01:53:27;;;;;;;8.78;5.08;;;;;;;21.35;75.94;99033.20;1791969;80;21033;-76
2022/08/15 01:56:00;;;;;;;8.43;4.90;;;;;;;21.34;75.96;99030.16;1792194;79;21051;-76
2022/08/15 01:58:29;;;;;;;7.62;5.00;;;;;;;21.33;76.01;99028.45;1791556;80;21906;-76
2022/08/15 02:01:02;;;;;;;6.08;5.12;;;;;;;21.32;76.13;99024.10;1792163;80;21067;-75
2022/08/15 02:03:36;;;;;;;6.10;5.53;;;;;;;21.29;76.17;99023.03;1792399;80;21020;-75
2022/08/15 02:06:12;;;;;;;7.25;5.12;;;;;;;21.28;76.21;99019.98;1792143;80;21028;-75
2022/08/15 02:08:40;;;;;;;9.68;5.28;;;;;;;21.27;76.30;99022.32;1791989;80;21102;-75
2022/08/15 02:11:13;;;;;;;8.35;5.08;;;;;;;21.25;76.34;99014.89;1792068;80;21087;-75
2022/08/15 02:13:41;;;;;;;8.15;4.97;;;;;;;21.25;76.34;99013.55;1791819;79;21657;-75
2022/08/15 02:16:08;;;;;;;10.00;5.83;;;;;;;21.24;76.35;99014.05;1792395;80;21574;-75
2022/08/15 02:18:34;;;;;;;8.10;5.20;;;;;;;21.23;76.42;99011.52;1791625;80;21579;-76
2022/08/15 02:21:01;;;;;;;5.95;5.20;;;;;;;21.23;76.48;99015.52;1791922;80;21091;-75
2022/08/15 02:23:29;;;;;;;5.60;5.03;;;;;;;21.22;76.48;99017.86;1798711;79;21102;-76
2022/08/15 02:25:55;;;;;;;10.10;5.50;;;;;;;21.21;76.57;99017.49;1800220;79;21063;-75
2022/08/15 02:28:23;;;;;;;5.87;5.12;;;;;;;21.21;76.65;99026.86;1800463;79;21102;-75
2022/08/15 02:30:50;;;;;;;5.72;4.92;;;;;;;21.19;76.72;99020.80;1800126;79;21104;-76
2022/08/15 02:33:17;;;;;;;6.65;5.10;;;;;;;21.19;76.75;99022.13;1800563;79;21091;-75
2022/08/15 02:35:43;;;;;;;9.05;5.03;;;;;;;21.19;76.86;99028.33;1800196;79;21485;-75
2022/08/15 02:38:10;;;;;;;7.62;5.12;;;;;;;21.19;76.94;99028.83;1800182;79;21366;-75
2022/08/15 02:40:36;;;;;;;6.40;5.20;;;;;;;21.19;77.01;99022.13;1800533;79;21055;-75
2022/08/15 02:43:09;;;;;;;10.38;5.20;;;;;;;21.17;77.05;99016.91;1800259;79;21838;-76
2022/08/15 02:45:38;;;;;;;8.35;4.95;;;;;;;21.18;77.10;99016.41;1800762;79;21078;-76
2022/08/15 02:48:06;;;;;;;8.65;4.87;;;;;;;21.19;77.10;99024.81;1800327;79;21122;-75
2022/08/15 02:50:34;;;;;;;9.58;5.03;;;;;;;21.19;77.15;99024.31;1800247;79;21028;-76
2022/08/15 02:53:11;;;;;;;7.78;4.92;;;;;;;21.21;77.16;99021.50;1800287;79;21546;-76
2022/08/15 02:55:40;;;;;;;12.13;5.28;;;;;;;21.21;77.17;99021.50;1799518;79;21031;-76
2022/08/15 02:58:09;;;;;;;11.10;5.25;;;;;;;21.23;77.11;99026.23;1769771;79;21527;-75
2022/08/15 03:00:38;;;;;;;13.83;5.33;;;;;;;21.24;77.10;99029.27;1800539;79;21119;-75
2022/08/15 03:03:11;;;;;;;5.22;4.72;;;;;;;21.24;77.11;99023.92;1800700;79;21054;-76
2022/08/15 03:05:40;;;;;;;6.85;5.37;;;;;;;21.24;77.11;99021.24;1800637;79;21023;-76
2022/08/15 03:08:08;;;;;;;12.30;5.30;;;;;;;21.25;77.10;99021.58;1800563;79;21059;-75
2022/08/15 03:10:35;;;;;;;7.33;4.85;;;;;;;21.26;77.10;99027.30;1800294;79;21078;-75
2022/08/15 03:13:09;;;;;;;5.08;4.62;;;;;;;21.27;77.14;99022.32;1800630;79;21167;-76
2022/08/15 03:15:47;;;;;;;7.28;5.10;;;;;;;21.27;77.10;99021.82;1800602;79;20992;-76
2022/08/15 03:18:14;;;;;;;10.30;5.72;;;;;;;21.27;77.13;99020.48;1800673;79;21031;-76
2022/08/15 03:20:42;;;;;;;8.08;5.40;;;;;;;21.28;77.09;99024.86;1800519;79;21102;-75
2022/08/15 03:23:09;;;;;;;6.10;5.10;;;;;;;21.28;77.11;99018.17;1799279;79;21020;-76
2022/08/15 03:25:41;;;;;;;6.60;4.97;;;;;;;21.29;77.07;99017.67;1797606;79;21249;-75
2022/08/15 03:28:08;;;;;;;7.20;5.10;;;;;;;21.32;77.04;99018.75;1807115;79;21580;-76
2022/08/15 03:30:36;;;;;;;7.20;5.17;;;;;;;21.33;76.97;99025.78;1810180;78;21031;-75
2022/08/15 03:33:04;;;;;;;6.62;5.53;;;;;;;21.32;76.96;99021.43;1809678;78;21101;-75
2022/08/15 03:35:42;;;;;;;12.98;5.10;;;;;;;21.31;76.95;99019.72;1810404;79;21349;-75
2022/08/15 03:38:10;;;;;;;9.00;4.72;;;;;;;21.32;76.95;99015.58;1809927;78;21796;-76
2022/08/15 03:40:40;;;;;;;7.47;5.90;;;;;;;21.35;77.01;99013.14;1804447;78;20989;-75
2022/08/15 03:43:19;;;;;;;13.95;5.50;;;;;;;21.35;77.08;99015.81;1797714;79;21035;-76
2022/08/15 03:45:52;;;;;;;13.60;5.80;;;;;;;21.34;77.06;99015.45;1798215;79;20984;-76
2022/08/15 03:48:23;;;;;;;6.72;5.25;;;;;;;21.34;77.10;99022.13;1797805;79;21106;-75
2022/08/15 03:50:52;;;;;;;7.08;5.42;;;;;;;21.33;77.12;99012.40;1798035;79;21115;-75
2022/08/15 03:53:19;;;;;;;15.05;6.45;;;;;;;21.33;77.14;99016.41;1797789;79;21102;-75
2022/08/15 03:55:46;;;;;;;9.55;5.83;;;;;;;21.32;77.35;99017.41;1797732;79;20992;-76
2022/08/15 03:58:13;;;;;;;9.95;5.45;;;;;;;21.31;77.43;99009.02;1798203;79;20984;-75
2022/08/15 04:00:46;;;;;;;7.42;6.58;;;;;;;21.31;77.54;99015.70;1797838;79;21039;-76
2022/08/15 04:03:20;;;;;;;7.23;5.97;;;;;;;21.31;77.58;99022.39;1798314;79;21871;-75
2022/08/15 04:05:53;;;;;;;6.45;5.47;;;;;;;21.31;77.58;99022.39;1797636;79;21028;-76
2022/08/15 04:08:22;;;;;;;6.75;5.70;;;;;;;21.29;77.52;99015.00;1797154;79;21168;-76
2022/08/15 04:10:50;;;;;;;9.38;5.85;;;;;;;21.28;77.65;99011.48;1797849;79;21055;-75
2022/08/15 04:13:23;;;;;;;6.95;5.50;;;;;;;21.26;77.85;99005.40;1797662;79;21094;-75
2022/08/15 04:15:52;;;;;;;7.35;5.72;;;;;;;21.25;77.99;99008.20;1797878;79;21883;-75
2022/08/15 04:18:20;;;;;;;9.03;4.85;;;;;;;21.26;78.11;99005.90;1797768;79;21149;-76
2022/08/15 04:20:48;;;;;;;6.80;5.35;;;;;;;21.26;78.30;99004.06;1797838;79;21015;-76
2022/08/15 04:23:16;;;;;;;9.93;6.00;;;;;;;21.24;78.39;99002.52;1795011;79;21089;-76
2022/08/15 04:25:43;;;;;;;13.70;5.60;;;;;;;21.26;78.62;99008.57;1792137;80;20965;-76
2022/08/15 04:28:14;;;;;;;6.33;5.08;;;;;;;21.25;78.74;99009.07;1791910;79;21127;-76
2022/08/15 04:30:43;;;;;;;8.25;4.87;;;;;;;21.26;78.92;99008.07;1792067;80;21027;-76
2022/08/15 04:33:22;;;;;;;7.85;5.35;;;;;;;21.27;79.04;99015.63;1791886;80;21063;-76
2022/08/15 04:35:56;;;;;;;5.83;5.33;;;;;;;21.27;79.15;99012.95;1792113;80;21432;-75
2022/08/15 04:38:23;;;;;;;6.55;5.90;;;;;;;21.30;79.17;99012.19;1792078;79;20968;-76
2022/08/15 04:40:50;;;;;;;5.35;4.90;;;;;;;21.31;79.27;99004.50;1792078;80;21090;-76
2022/08/15 04:43:18;;;;;;;8.65;5.30;;;;;;;21.34;79.19;99006.91;1791766;80;21048;-76
2022/08/15 04:45:46;;;;;;;7.42;5.85;;;;;;;21.37;79.23;98996.45;1791841;80;21666;-76
2022/08/15 04:48:15;;;;;;;6.72;5.70;;;;;;;21.37;79.18;98999.12;1792094;80;21079;-76
2022/08/15 04:50:44;;;;;;;6.28;5.58;;;;;;;21.38;79.17;99007.48;1791846;80;21078;-76
2022/08/15 04:53:13;;;;;;;5.83;5.22;;;;;;;21.41;79.11;99009.06;1792053;80;21107;-76
2022/08/15 04:55:43;;;;;;;10.25;6.33;;;;;;;21.44;78.98;99006.96;1791937;80;21131;-75
2022/08/15 04:58:11;;;;;;;12.88;5.35;;;;;;;21.49;78.93;99018.64;1791950;79;21090;-77
2022/08/15 05:00:40;;;;;;;8.00;5.62;;;;;;;21.50;78.68;99013.62;1791741;80;21107;-76
2022/08/15 05:03:16;;;;;;;15.03;5.92;;;;;;;21.54;78.86;99011.55;1790173;80;21059;-76
2022/08/15 05:05:48;;;;;;;9.80;5.10;;;;;;;21.58;78.76;98996.39;1791654;79;21171;-75
2022/08/15 05:08:15;;;;;;;13.22;5.28;;;;;;;21.63;78.48;98995.49;1791761;80;20976;-76
2022/08/15 05:10:45;;;;;;;12.25;5.65;;;;;;;21.68;78.23;99005.80;1792063;80;21463;-76
2022/08/15 05:13:17;;;;;;;7.17;5.90;;;;;;;21.71;77.93;99002.86;1791688;80;21126;-77
2022/08/15 05:15:44;;;;;;;6.30;5.10;;;;;;;21.73;77.69;98997.37;1770250;80;21059;-76
2022/08/15 05:18:12;;;;;;;14.20;5.62;;;;;;;21.75;77.17;98992.21;1791914;80;21135;-76
2022/08/15 05:20:42;;;;;;;9.25;5.37;;;;;;;21.79;77.01;98993.66;1792220;80;21004;-77
2022/08/15 05:23:12;;;;;;;7.55;4.90;;;;;;;21.83;76.98;98982.16;1792112;79;21118;-75
2022/08/15 05:25:46;;;;;;;7.80;5.40;;;;;;;21.86;77.04;98989.93;1791459;79;21582;-76
2022/08/15 05:28:14;;;;;;;9.48;5.05;;;;;;;21.89;76.78;98983.80;1792365;79;21138;-76
2022/08/15 05:30:41;;;;;;;6.70;5.47;;;;;;;21.96;76.96;98983.26;1810660;79;21107;-76
2022/08/15 05:33:13;;;;;;;11.97;5.83;;;;;;;22.02;76.86;98985.36;1811485;79;21116;-77
2022/08/15 05:35:42;;;;;;;6.30;4.85;;;;;;;22.09;76.14;98979.82;1800819;79;20993;-76
2022/08/15 05:38:17;;;;;;;5.75;4.50;;;;;;;22.15;75.58;98984.59;1803997;78;21579;-77
2022/08/15 05:40:55;;;;;;;7.42;4.87;;;;;;;22.20;74.70;98978.32;1803331;79;21209;-75
2022/08/15 05:43:33;;;;;;;10.28;4.65;;;;;;;22.25;73.23;98971.20;1803461;79;21106;-76
2022/08/15 05:46:40;;;;;;;7.90;4.53;;;;;;;22.32;72.46;98976.88;1800253;79;21103;-76
2022/08/15 05:49:40;;;;;;;6.55;5.25;;;;;;;22.39;71.83;98967.28;1803960;79;21033;-76
2022/08/15 05:52:30;;;;;;;8.00;5.20;;;;;;;22.52;71.75;98969.17;1804096;79;21059;-76
2022/08/15 05:55:41;;;;;;;7.20;5.08;;;;;;;22.60;71.15;98974.67;1804153;79;21059;-75
2022/08/15 05:58:37;;;;;;;8.65;5.28;;;;;;;22.67;71.53;98978.96;1736098;79;21153;-76
2022/08/15 06:01:19;;;;;;;6.15;5.03;;;;;;;22.71;71.05;98975.02;1803765;79;21123;-76
2022/08/15 06:03:56;;;;;;;7.72;5.17;;;;;;;22.74;71.17;98973.87;1804253;79;21465;-76
2022/08/15 06:06:28;;;;;;;9.00;5.42;;;;;;;22.77;70.56;98973.59;1801786;79;21060;-76
2022/08/15 06:09:22;;;;;;;8.33;5.62;;;;;;;22.79;70.44;98964.89;1803906;79;21080;-75
2022/08/15 06:11:52;;;;;;;8.88;5.00;;;;;;;22.79;69.71;98968.92;1804130;79;21068;-75
2022/08/15 06:14:34;;;;;;;7.90;5.10;;;;;;;22.79;69.92;98955.00;1803829;79;21195;-76
2022/08/15 06:17:12;;;;;;;7.85;4.60;;;;;;;22.78;69.30;98958.69;1792225;79;21548;-75
2022/08/15 06:19:42;;;;;;;8.98;5.20;;;;;;;22.79;69.15;98960.88;1804135;79;21052;-76
2022/08/15 06:22:46;;;;;;;9.48;4.80;;;;;;;22.80;69.10;98966.59;1803791;79;21543;-77
2022/08/15 06:25:48;;;;;;;6.65;5.40;;;;;;;22.81;69.15;98962.44;1803785;79;21972;-76
2022/08/15 06:28:28;;;;;;;11.50;5.30;;;;;;;22.85;68.91;98961.64;1802697;79;20990;-75
2022/08/15 06:31:13;;;;;;;10.18;5.33;;;;;;;22.88;68.55;98961.83;1775643;79;21565;-76
2022/08/15 06:33:46;;;;;;;12.10;4.80;;;;;;;22.92;68.88;98964.59;1790700;79;21100;-76
2022/08/15 06:36:30;;;;;;;7.17;5.03;;;;;;;22.98;68.88;98970.69;1804373;79;21001;-76
2022/08/15 06:39:06;;;;;;;10.10;4.58;;;;;;;23.02;69.12;98975.30;1804335;79;21511;-75
2022/08/15 06:42:00;;;;;;;9.55;4.83;;;;;;;23.09;68.63;98985.31;1803929;79;20989;-76
2022/08/15 06:44:30;;;;;;;12.28;5.15;;;;;;;23.15;68.03;98980.72;1803455;79;21547;-76
2022/08/15 06:47:03;;;;;;;12.50;5.03;;;;;;;23.22;68.30;98970.71;1803976;79;21214;-76
2022/08/15 06:49:27;;;;;;;13.50;5.47;;;;;;;23.26;68.33;98972.13;1781272;79;21072;-76
2022/08/15 06:51:53;;;;;;;11.15;5.45;;;;;;;23.29;67.63;98971.84;1804191;79;21475;-76
2022/08/15 06:54:26;;;;;;;7.17;4.95;;;;;;;23.31;67.32;98980.08;1804008;79;21008;-76
2022/08/15 06:57:08;;;;;;;7.28;5.65;;;;;;;23.31;67.04;98976.05;1804471;79;21060;-75
2022/08/15 06:59:59;;;;;;;5.12;4.62;;;;;;;23.29;67.31;98971.33;1803719;79;21021;-75
2022/08/15 07:02:54;;;;;;;9.30;5.00;;;;;;;23.29;67.19;98970.49;1804202;79;20925;-76
2022/08/15 07:05:26;;;;;;;9.83;5.30;;;;;;;23.28;66.92;98966.11;1775156;80;22403;-75
2022/08/15 07:08:07;;;;;;;11.05;4.80;;;;;;;23.26;66.75;98974.30;1797671;79;21092;-75
2022/08/15 07:10:41;;;;;;;5.95;5.05;;;;;;;23.26;67.17;98976.98;1783105;79;21037;-75
2022/08/15 07:13:12;;;;;;;10.60;4.85;;;;;;;23.27;67.29;98984.06;1804139;79;21064;-75
2022/08/15 07:15:59;;;;;;;9.53;5.58;;;;;;;23.27;67.11;98980.54;1804056;78;21111;-75
2022/08/15 07:18:45;;;;;;;10.08;5.22;;;;;;;23.27;67.15;98992.11;1802775;79;21112;-75
2022/08/15 07:21:17;;;;;;;10.60;5.37;;;;;;;23.28;67.86;98983.05;1801773;79;21018;-75
2022/08/15 07:24:09;;;;;;;9.48;5.17;;;;;;;23.26;67.96;98985.04;1805444;79;20960;-75
2022/08/15 07:26:51;;;;;;;7.80;5.30;;;;;;;23.26;68.22;98993.09;1790595;79;20996;-75
2022/08/15 07:29:33;;;;;;;15.93;5.30;;;;;;;23.23;69.02;98993.38;1766528;81;21000;-76
2022/08/15 07:32:17;;;;;;;8.45;4.95;;;;;;;23.25;69.74;99006.18;1769341;79;21359;-76
2022/08/15 07:35:01;;;;;;;10.47;5.00;;;;;;;23.28;69.31;99000.49;1771565;81;21039;-76
2022/08/15 07:37:34;;;;;;;;;;;;;;;23.31;68.96;99002.89;1773771;81;22267;-75
2022/08/15 07:40:09;;;;;;;6.53;4.90;;;;;;;23.34;68.81;98997.73;1771502;81;20255;-75
2022/08/15 07:42:41;;;;;;;5.78;4.35;;;;;;;23.39;69.06;99006.19;1768567;81;20969;-76
2022/08/15 07:45:21;;;;;;;5.30;4.80;;;;;;;23.43;68.41;99004.05;1770976;80;21120;-75
2022/08/15 07:47:59;;;;;;;12.63;5.12;;;;;;;23.51;67.96;99000.13;1740047;80;21001;-75
2022/08/15 07:50:37;;;;;;;15.00;5.37;;;;;;;23.60;67.31;98997.88;1750501;80;21916;-76
2022/08/15 07:53:13;;;;;;;13.38;4.83;;;;;;;23.77;67.43;98996.73;1735966;81;21013;-75
2022/08/15 07:55:41;;;;;;;8.13;4.95;;;;;;;23.92;66.62;98996.59;1771639;81;21103;-74
2022/08/15 07:58:17;;;;;;;7.12;5.08;;;;;;;24.04;65.74;98990.51;1741583;81;21126;-74
2022/08/15 08:00:52;;;;;;;7.05;4.72;;;;;;;24.14;65.44;98998.50;1771222;81;21020;-75
2022/08/15 08:03:25;;;;;;;11.08;5.28;;;;;;;24.24;65.84;99003.30;1770549;80;21056;-75
2022/08/15 08:06:08;;;;;;;13.60;5.62;;;;;;;24.33;65.50;98999.72;1771492;81;21551;-74
2022/08/15 08:08:40;;;;;;;9.85;5.22;;;;;;;24.41;64.94;99002.48;1771066;81;21080;-75
2022/08/15 08:11:22;;;;;;;6.08;4.80;;;;;;;24.47;64.79;99005.88;1741093;80;21238;-75
2022/08/15 08:13:57;;;;;;;11.48;5.03;;;;;;;24.51;63.81;98997.50;1771201;81;21049;-75
2022/08/15 08:16:31;;;;;;;8.13;5.22;;;;;;;24.53;63.51;98998.19;1770967;80;21041;-75
2022/08/15 08:19:28;;;;;;;5.67;5.17;;;;;;;24.57;63.39;99000.95;1741158;81;21114;-75
2022/08/15 08:22:18;;;;;;;10.98;4.90;;;;;;;24.62;63.07;98998.64;1771209;80;21099;-74
2022/08/15 08:24:59;;;;;;;5.72;4.78;;;;;;;24.75;63.75;98992.36;1717757;81;21854;-74
2022/08/15 08:27:40;;;;;;;8.80;4.95;;;;;;;24.90;63.43;99001.19;1753164;80;21074;-74
2022/08/15 08:30:16;;;;;;;9.63;4.45;;;;;;;24.99;62.52;99000.25;1788593;80;21041;-76
2022/08/15 08:32:59;;;;;;;7.87;4.50;;;;;;;25.11;62.32;99001.66;1787659;80;21645;-75
2022/08/15 08:35:54;;;;;;;8.58;4.70;;;;;;;25.22;61.17;99005.95;1788477;80;21196;-74
2022/08/15 08:38:30;;;;;;;;;;;;;;;25.27;60.60;98997.41;1791166;80;21255;-75
2022/08/15 08:43:55;;;;;;;8.38;4.30;;;;;;;25.29;60.28;98985.48;1788265;80;21002;-75
2022/08/15 08:46:59;;;;;;;7.65;4.55;;;;;;;25.32;60.29;98984.33;1787188;80;21086;-75
2022/08/15 08:49:57;;;;;;;13.65;4.80;;;;;;;25.38;60.52;98985.02;1753392;81;21447;-74
2022/08/15 08:52:41;;;;;;;6.72;4.35;;;;;;;25.52;60.46;98996.54;1788449;80;22151;-74
2022/08/15 08:55:13;;;;;;;6.92;4.20;;;;;;;25.66;59.96;98991.55;1753607;81;20991;-76
2022/08/15 08:57:47;;;;;;;12.55;4.55;;;;;;;25.74;59.36;98995.10;1788219;80;21585;-74
2022/08/15 09:00:18;;;;;;;11.85;4.20;;;;;;;25.78;57.87;98992.92;1753564;81;21051;-74
2022/08/15 09:03:02;;;;;;;7.62;4.22;;;;;;;25.83;58.28;98991.92;1752852;81;21043;-75
2022/08/15 09:05:40;;;;;;;14.85;4.35;;;;;;;25.89;57.89;98988.58;1788224;80;21148;-75
2022/08/15 09:08:12;;;;;;;9.73;4.67;;;;;;;25.94;57.39;98988.93;1787322;80;21200;-76
2022/08/15 09:10:41;;;;;;;14.47;4.80;;;;;;;25.98;57.50;98997.56;1752080;81;21968;-76
2022/08/15 09:15:56;;;;;;;6.72;3.77;;;;;;;26.02;57.04;99005.64;1753422;81;21050;-75
2022/08/15 09:18:30;;;;;;;9.58;4.00;;;;;;;26.06;57.05;99011.57;1757974;80;22268;-75
2022/08/15 09:20:58;;;;;;;5.55;3.85;;;;;;;26.07;57.03;99013.24;1788631;80;21591;-75
2022/08/15 09:23:25;;;;;;;4.20;3.72;;;;;;;26.05;57.28;99012.05;1734615;81;21596;-75
2022/08/15 09:26:11;;;;;;;7.75;4.40;;;;;;;26.03;57.42;99007.34;1793060;79;21488;-74
2022/08/15 09:28:42;;;;;;;10.70;4.53;;;;;;;26.00;57.11;99003.63;1785898;79;21091;-74
2022/08/15 09:31:25;;;;;;;7.55;4.60;;;;;;;25.99;57.66;99001.09;1791951;79;21798;-74
2022/08/15 09:34:06;;;;;;;10.88;4.30;;;;;;;26.01;58.32;99003.11;1758798;81;21114;-75
2022/08/15 09:37:14;;;;;;;12.15;4.60;;;;;;;26.04;57.75;99003.65;1788128;80;21022;-75
2022/08/15 09:40:13;;;;;;;7.40;4.03;;;;;;;26.07;57.82;98999.25;1735897;81;21332;-75
2022/08/15 09:43:02;;;;;;;18.95;3.72;;;;;;;26.10;57.81;98997.58;1727814;83;21093;-74
2022/08/15 09:45:55;;;;;;;12.07;3.98;;;;;;;26.14;56.54;99002.99;1688851;82;21082;-75
2022/08/15 09:49:01;;;;;;;6.72;4.20;;;;;;;26.12;56.31;99000.11;1760386;81;21682;-74
2022/08/15 09:51:57;;;;;;;8.93;4.05;;;;;;;26.14;56.35;98992.69;1760499;81;21015;-75
2022/08/15 09:54:24;;;;;;;9.98;4.30;;;;;;;26.17;56.39;98988.31;1761195;80;21427;-75
2022/08/15 09:57:31;;;;;;;11.63;4.05;;;;;;;26.18;56.82;98977.88;1785061;80;21589;-75
2022/08/15 10:00:16;;;;;;;7.95;4.08;;;;;;;26.21;56.73;98970.81;1766874;80;21131;-75
2022/08/15 10:02:44;;;;;;;;;;;;;;;26.18;56.78;98967.09;1787036;80;21052;-75
2022/08/15 10:05:44;;;;;;;8.10;3.80;;;;;;;26.15;56.81;98962.03;1784442;80;20203;-75
2022/08/15 10:08:13;;;;;;;6.60;3.98;;;;;;;26.11;57.59;98963.39;1754485;80;21016;-74
2022/08/15 10:10:51;;;;;;;11.45;4.10;;;;;;;26.08;57.23;98969.11;1784903;80;21034;-74
2022/08/15 10:13:26;;;;;;;13.65;4.33;;;;;;;26.04;57.53;98973.13;1783481;80;21780;-76
2022/08/15 10:15:53;;;;;;;7.15;4.35;;;;;;;25.98;57.77;98971.12;1784781;80;21055;-75
2022/08/15 10:18:28;;;;;;;13.22;4.80;;;;;;;25.91;57.56;98967.69;1784654;80;21515;-74
2022/08/15 10:21:02;;;;;;;9.63;4.33;;;;;;;25.83;57.26;98961.45;1784668;80;21032;-75
2022/08/15 10:23:41;;;;;;;;;;;;;;;25.77;57.71;98958.89;1784923;80;21036;-75
2022/08/15 10:26:27;;;;;;;7.55;4.05;;;;;;;25.75;58.42;98948.78;1784597;79;21561;-75
2022/08/15 10:29:19;;;;;;;8.33;4.47;;;;;;;25.69;59.07;98940.03;1784507;80;20980;-75
2022/08/15 10:31:57;;;;;;;8.08;4.47;;;;;;;25.62;59.79;98941.19;1784239;80;21594;-75
2022/08/15 10:34:41;;;;;;;9.03;4.45;;;;;;;25.58;61.03;98943.85;1784649;80;21028;-74
2022/08/15 10:37:19;;;;;;;10.72;5.00;;;;;;;25.56;61.06;98945.88;1759628;80;21047;-74
2022/08/15 10:40:11;;;;;;;7.53;3.85;;;;;;;25.53;61.80;98961.84;1784918;80;21838;-74
2022/08/15 10:42:54;;;;;;;4.90;4.00;;;;;;;25.51;61.60;98967.91;1784128;80;21061;-74
2022/08/15 10:45:46;;;;;;;14.35;4.67;;;;;;;25.50;61.63;98964.89;1785128;80;22033;-75
2022/08/15 10:48:37;;;;;;;11.40;4.25;;;;;;;25.47;61.64;98961.17;1784170;80;21060;-74
2022/08/15 10:51:44;;;;;;;12.47;5.28;;;;;;;25.45;62.80;98952.38;1784864;80;21048;-74
2022/08/15 10:54:36;;;;;;;11.78;5.25;;;;;;;25.43;63.16;98949.02;1784423;80;21537;-73
2022/08/15 10:57:05;;;;;;;11.18;4.83;;;;;;;25.40;63.91;98942.60;1784553;80;21117;-74
2022/08/15 10:59:40;;;;;;;7.30;4.17;;;;;;;25.35;64.59;98940.91;1784463;80;21056;-73
2022/08/15 11:02:41;;;;;;;8.23;3.98;;;;;;;25.31;65.06;98918.02;1784873;80;21040;-74
2022/08/15 11:05:12;;;;;;;9.15;4.40;;;;;;;25.26;65.42;98910.41;1784437;80;21103;-74
2022/08/15 11:07:48;;;;;;;5.35;3.90;;;;;;;25.22;65.42;98946.72;1784818;80;21083;-75
2022/08/15 11:10:19;;;;;;;11.03;4.03;;;;;;;25.17;65.22;98945.02;1784483;80;20953;-74
2022/08/15 11:12:49;;;;;;;13.32;4.40;;;;;;;25.15;65.11;98926.81;1784845;80;21067;-74
2022/08/15 11:15:28;;;;;;;11.50;4.55;;;;;;;25.14;65.28;98935.40;1783551;80;21044;-74
2022/08/15 11:18:05;;;;;;;8.23;4.50;;;;;;;25.14;64.96;98944.82;1736957;80;21150;-75
2022/08/15 11:20:44;;;;;;;7.42;3.80;;;;;;;25.17;65.00;98959.31;1784439;80;21191;-75
2022/08/15 11:23:11;;;;;;;12.03;4.53;;;;;;;25.17;64.76;98946.36;1785345;80;21510;-75
2022/08/15 11:25:40;;;;;;;10.00;4.65;;;;;;;25.20;64.73;98942.84;1784479;80;21483;-74
2022/08/15 11:28:28;;;;;;;8.43;4.00;;;;;;;25.25;64.01;98938.81;1784707;80;20994;-74
2022/08/15 11:31:05;;;;;;;13.50;4.53;;;;;;;25.27;63.91;98940.86;1784616;80;21051;-75
2022/08/15 11:33:47;;;;;;;5.35;3.90;;;;;;;25.26;63.56;98944.55;1782285;80;21138;-75
2022/08/15 11:36:26;;;;;;;9.65;4.22;;;;;;;25.27;63.71;98965.09;1796638;78;20976;-76
2022/08/15 11:38:56;;;;;;;9.95;4.22;;;;;;;25.24;63.40;98953.30;1818587;78;21058;-74
2022/08/15 11:41:27;;;;;;;12.95;4.12;;;;;;;25.15;64.00;98947.87;1819124;78;20978;-75
2022/08/15 11:43:58;;;;;;;13.45;4.67;;;;;;;25.10;64.68;98952.89;1818690;78;21054;-74
2022/08/15 11:46:25;;;;;;;13.83;4.10;;;;;;;25.08;65.28;98964.80;1815300;78;21130;-74
2022/08/15 11:49:08;;;;;;;14.33;4.10;;;;;;;25.04;64.82;98953.01;1818885;78;21050;-75
2022/08/15 11:51:40;;;;;;;12.63;4.03;;;;;;;25.01;65.61;98944.41;1818885;78;21030;-74
2022/08/15 11:54:20;;;;;;;8.55;3.90;;;;;;;24.96;65.98;98953.47;1819112;78;21029;-74
2022/08/15 11:57:02;;;;;;;9.13;4.40;;;;;;;24.90;66.09;98952.75;1818739;78;21069;-74
2022/08/15 11:59:39;;;;;;;8.83;4.20;;;;;;;24.82;66.98;98957.09;1819156;78;21575;-74
2022/08/15 12:02:20;;;;;;;8.28;3.85;;;;;;;24.78;67.24;98962.45;1818251;78;21026;-74
2022/08/15 12:04:48;;;;;;;7.72;4.15;;;;;;;24.73;67.37;98960.73;1818981;78;21168;-74
2022/08/15 12:07:27;;;;;;;11.57;4.00;;;;;;;24.69;67.08;98968.77;1818611;78;21557;-74
2022/08/15 12:10:00;;;;;;;9.73;3.92;;;;;;;24.66;67.29;98967.73;1818626;78;21097;-74
2022/08/15 12:12:34;;;;;;;6.67;4.28;;;;;;;24.64;67.39;98975.11;1818619;78;21131;-74
2022/08/15 12:15:25;;;;;;;;;;;;;;;24.63;67.74;98978.31;1820375;78;21098;-75
2022/08/15 12:18:12;;;;;;;10.70;4.20;;;;;;;24.61;67.95;98970.05;1818557;78;20130;-76
2022/08/15 12:21:03;;;;;;;10.18;4.62;;;;;;;24.60;68.59;98973.75;1819010;78;21033;-75